Aplicació Alertes

Dades de l'estació automàtica Canaletes

?
?
Resum diari 23:00 TU
Dades diàries de l'estació meteorològica
Temperatura mitjana 9.4 °C
Temperatura màxima 15.3 °C 13:32 TU
Temperatura mínima 4.7 °C 2:11 TU
Humitat relativa mitjana 60%
Precipitació acumulada 0.0 mm
Ratxa màxima del vent (2 m) 23.4 km/h - 346º 12:55 TU
Irradiació solar global 10.2 MJ/m2

El tram horari està expressat en Temps Universal (TU). Cal sumar una hora en horari d'hivern i dues en horari d'estiu per passar a l'hora oficial.

Canaletes

Metadades estació meteorol´gica
Municipi Mediona
Comarca Alt Penedès
Altitud 325 m
Data alta 17.05.2002
Estat actual Operativa
Dades de període
Període
TU
TM
°C
TX
°C
TN
°C
HRM
%
PPT
mm
VVM (2 m)
km/h
DVM (2 m)
graus
VVX (2 m)
km/h
RS
W/m2
00:00 - 00:30 7.6 8.3 6.9 61 0.0 5.4 358 11.5 0
00:30 - 01:00 6.3 7.0 5.6 65 0.0 1.8 30 6.8 0
01:00 - 01:30 5.9 6.8 4.8 67 0.0 1.4 11 7.9 0
01:30 - 02:00 6.0 7.4 5.2 67 0.0 1.8 44 8.6 0
02:00 - 02:30 5.3 6.5 4.7 70 0.0 1.1 76 6.8 0
02:30 - 03:00 6.8 7.7 6.3 67 0.0 2.2 9 11.9 0
03:00 - 03:30 7.8 7.9 7.6 66 0.0 9.7 309 18.4 0
03:30 - 04:00 7.5 8.0 6.9 67 0.0 7.6 316 22.7 0
04:00 - 04:30 6.8 7.0 6.5 70 0.0 4.3 320 12.6 0
04:30 - 05:00 6.5 6.9 5.9 71 0.0 2.9 299 11.9 0
05:00 - 05:30 6.4 7.0 6.1 72 0.0 1.1 24 7.6 0
05:30 - 06:00 5.9 6.4 5.6 73 0.0 0.7 51 4.3 0
06:00 - 06:30 5.9 6.1 5.5 73 0.0 2.2 57 11.5 0
06:30 - 07:00 6.1 6.6 5.5 73 0.0 4.7 2 15.8 5
07:00 - 07:30 6.5 6.6 6.4 71 0.0 6.5 320 17.3 60
07:30 - 08:00 6.6 6.8 6.4 71 0.0 8.6 325 20.2 89
08:00 - 08:30 7.0 7.6 6.7 70 0.0 5.8 332 20.9 152
08:30 - 09:00 7.8 8.0 7.7 66 0.0 8.6 338 21.2 261
09:00 - 09:30 8.4 8.9 7.9 65 0.0 9.4 335 21.2 340
09:30 - 10:00 9.4 10.1 8.8 62 0.0 7.9 334 22.3 402
10:00 - 10:30 10.7 11.2 10.0 58 0.0 5.0 2 17.3 442
10:30 - 11:00 11.8 12.4 11.4 55 0.0 9.0 347 20.5 474
11:00 - 11:30 12.8 13.2 12.2 52 0.0 8.6 352 18.4 495
11:30 - 12:00 13.8 14.2 13.2 49 0.0 8.6 350 18.0 499
12:00 - 12:30 14.2 14.4 13.9 47 0.0 10.4 345 20.5 490
12:30 - 13:00 14.5 14.8 14.2 46 0.0 11.9 349 23.4 464
13:00 - 13:30 15.0 15.2 14.8 44 0.0 11.5 342 22.0 426
13:30 - 14:00 14.9 15.3 14.6 44 0.0 11.9 350 22.7 362
14:00 - 14:30 14.8 15.0 14.6 43 0.0 11.5 344 20.2 302
14:30 - 15:00 14.6 14.7 14.5 44 0.0 10.8 339 20.9 237
15:00 - 15:30 14.3 14.5 13.9 45 0.0 9.0 342 16.2 146
15:30 - 16:00 13.6 13.9 13.0 47 0.0 7.6 344 14.0 77
16:00 - 16:30 12.4 13.0 11.9 50 0.0 6.5 340 14.0 16
16:30 - 17:00 11.4 11.9 10.7 52 0.0 6.1 319 13.3 0
17:00 - 17:30 10.5 10.7 10.2 55 0.0 7.2 317 13.3 0
17:30 - 18:00 10.4 10.6 10.2 55 0.0 5.8 342 15.1 0
18:00 - 18:30 9.6 10.1 9.4 58 0.0 4.7 311 14.8 0
18:30 - 19:00 9.3 9.5 9.0 59 0.0 8.6 322 19.8 0
19:00 - 19:30 9.1 9.3 9.0 60 0.0 6.8 320 16.9 0
19:30 - 20:00 9.0 9.2 8.7 60 0.0 11.2 329 20.9 0
20:00 - 20:30 8.6 8.8 8.4 61 0.0 6.1 324 17.3 0
20:30 - 21:00 8.4 8.6 8.1 60 0.0 3.2 326 15.5 0
21:00 - 21:30 8.1 8.3 7.9 61 0.0 2.5 306 14.0 0
21:30 - 22:00 8.3 8.5 7.9 60 0.0 3.2 325 13.7 0
22:00 - 22:30 7.9 8.2 7.5 61 0.0 1.1 191 6.5 0
22:30 - 23:00 7.8 7.9 7.5 61 0.0 2.2 334 12.2 0
23:00 - 23:30 8.2 8.4 7.9 60 0.0 4.3 333 14.8 0

Les dades en taronja només han passat un control de qualitat automàtic. Resta pendent la seva validació definitiva.